Latest Weather Observations for Cloncurry

IDQ60801

Issued at 6:02 pm EST Monday 8 February 2016 (issued every 30 minutes, with the page automatically refreshed every 10 minutes)

About weather observations | Map of weather stations | Latest weather observations for QLD | Other Formats
Station Details ID: 029141 Name: CLONCURRY AIRPORT Lat: -20.67 Lon: 140.50 Height: 186.0 m
Data from the previous 72 hours. | See also: Recent months at Cloncurry
Date/Time
EST
Temp
°C
App
Temp
°C
Dew
Point
Rel
Hum
%
Delta-T
°C
Wind Press
QNH
hPa
Press
MSL
hPa
Rain
since 9 am
mm
Dir
 
Spd
km/h
Gust
km/h
Spd
kts
Gust
kts
08/06:00pm 38.0 37.4 14.5 24 14.8 SSE 11 15 6 8 1005.5 1004.1 0.0
08/05:30pm 37.7 37.2 13.7 24 15.0 SE 9 15 5 8 1005.4 1004.0 0.0
08/05:00pm 38.8 37.8 14.6 24 15.3 S 13 24 7 13 1005.4 1004.0 0.0
08/04:30pm 39.0 38.5 16.0 26 14.8 S 13 28 7 15 1005.4 1004.0 0.0
08/04:00pm 38.5 38.5 16.2 27 14.4 S 11 19 6 10 1005.7 1004.3 0.0
08/03:30pm 38.5 36.7 15.6 26 14.6 S 19 26 10 14 1006.0 1004.6 0.0
08/03:00pm 38.1 38.4 17.0 29 13.8 SE 11 17 6 9 1006.4 1005.0 0.0
08/02:30pm 37.9 36.6 16.8 29 13.7 ESE 19 28 10 15 1006.8 1005.4 0.0
08/02:00pm 37.2 36.2 16.7 29 13.3 E 17 33 9 18 1007.2 1005.8 0.0
08/01:30pm 37.0 37.2 17.6 32 12.7 E 13 20 7 11 1007.8 1006.4 0.0
08/01:00pm 36.7 36.6 17.8 32 12.4 ESE 15 28 8 15 1008.4 1006.9 0.0
08/12:30pm 36.8 35.2 17.4 32 12.6 ESE 22 32 12 17 1009.0 1007.6 0.0
08/12:00pm 35.8 34.8 17.5 34 11.9 ESE 19 32 10 17 1009.4 1008.0 0.0
08/11:30am 35.6 34.2 18.7 37 11.2 ESE 24 32 13 17 1009.9 1008.5 0.0
08/11:00am 35.2 34.3 18.3 36 11.1 SE 20 28 11 15 1010.0 1008.6 0.0
08/10:30am 34.3 33.3 17.9 37 10.7 SE 20 28 11 15 1010.2 1008.8 0.0
08/10:00am 34.0 33.0 19.6 42 9.6 ESE 24 39 13 21 1010.3 1008.9 0.0
08/09:30am 32.9 32.2 19.4 45 8.9 SE 22 28 12 15 1010.2 1008.8 0.0
08/09:00am 31.6 30.8 19.2 47 8.2 SSE 22 28 12 15 1010.3 1008.9 0.0
08/08:30am 31.0 30.3 19.4 50 7.6 SE 22 30 12 16 1010.2 1008.8 0.0
08/08:00am 30.3 29.9 19.3 51 7.2 SSE 20 28 11 15 1009.9 1008.5 0.0
08/07:30am 29.7 29.5 19.4 54 6.8 SE 19 24 10 13 1009.7 1008.3 0.0
08/07:00am 29.0 29.8 19.0 54 6.5 SSE 13 19 7 10 1009.5 1008.1 0.0
08/06:30am 28.1 29.4 18.5 56 6.2 SSE 9 13 5 7 1009.2 1007.8 0.0
08/06:00am 28.3 29.7 18.7 56 6.2 SSE 9 11 5 6 1008.9 1007.5 0.0
08/05:30am 27.8 29.3 18.8 58 5.8 SSE 9 11 5 6 1008.6 1007.2 0.0
08/05:00am 28.5 29.9 18.6 55 6.4 SSE 9 9 5 5 1008.4 1006.9 0.0
08/04:30am 28.7 29.9 18.2 53 6.8 SSE 9 11 5 6 1008.2 1006.7 0.0
08/04:00am 29.1 30.2 17.9 50 7.2 SSE 9 11 5 6 1008.2 1006.7 0.0
08/03:30am 29.7 30.3 17.8 48 7.6 SSE 11 15 6 8 1008.1 1006.6 0.0
08/03:00am 30.5 30.3 17.6 46 8.3 SSE 15 19 8 10 1007.8 1006.4 0.0
08/02:30am 30.9 30.1 17.2 43 8.7 S 17 20 9 11 1008.1 1006.6 0.0
08/02:00am 31.7 31.2 16.8 40 9.5 S 15 20 8 11 1008.5 1007.0 0.0
08/01:30am 32.0 31.8 16.7 40 9.7 S 13 17 7 9 1008.7 1007.3 0.0
08/01:00am 32.3 31.9 16.2 38 10.2 S 13 17 7 9 1008.8 1007.4 0.0
08/12:30am 33.1 32.1 15.6 35 11.0 S 15 20 8 11 1009.0 1007.6 0.0
08/12:00am 33.6 31.7 15.1 33 11.6 S 19 26 10 14 1009.1 1007.7 0.0
 
Date/Time
EST
Temp
°C
App
Temp
°C
Dew
Point
Rel
Hum
%
Delta-T
°C
Wind Press
QNH
hPa
Press
MSL
hPa
Rain
since 9 am
mm
Dir
 
Spd
km/h
Gust
km/h
Spd
kts
Gust
kts
07/11:30pm 34.0 32.2 14.5 31 12.1 S 17 22 9 12 1009.0 1007.6 0.0
07/11:00pm 34.2 32.7 14.1 29 12.4 SSW 15 19 8 10 1008.8 1007.4 0.0
07/10:30pm 34.7 32.2 14.0 28 12.8 S 20 26 11 14 1008.6 1007.2 0.0
07/10:00pm 35.2 32.8 14.5 29 12.9 S 20 30 11 16 1008.1 1006.6 0.0
07/09:30pm 34.0 33.9 15.9 33 11.5 WNW 11 17 6 9 1007.6 1006.2 0.0
07/09:00pm 32.9 33.4 17.5 39 10.0 NW 11 13 6 7 1007.2 1005.8 0.0
07/08:30pm 32.7 33.5 18.1 42 9.5 NW 11 11 6 6 1007.0 1005.6 0.0
07/08:00pm 33.0 34.1 17.2 39 10.2 NW 7 7 4 4 1006.6 1005.2 0.0
07/07:30pm 34.8 35.5 15.7 32 12.1 NW 6 9 3 5 1006.1 1004.7 0.0
07/07:00pm 35.9 35.5 15.1 29 13.1 NW 11 11 6 6 1005.7 1004.3 0.0
07/06:30pm 36.9 35.6 13.6 24 14.4 NW 13 17 7 9 1005.4 1004.0 0.0
07/06:00pm 37.6 35.9 13.6 24 14.9 NNW 15 20 8 11 1005.0 1003.6 0.0
07/05:30pm 38.1 37.4 13.3 22 15.3 NW 9 13 5 7 1004.8 1003.4 0.0
07/05:00pm 36.8 36.8 13.5 24 14.4 SSE 6 9 3 5 1004.7 1003.3 0.0
07/04:30pm 37.0 36.8 13.1 24 14.7 SSE 6 11 3 6 1004.7 1003.3 0.0
07/04:00pm 37.3 37.7 15.2 27 14.0 SSE 7 11 4 6 1004.9 1003.5 0.0
07/03:30pm 37.8 37.7 15.0 26 14.4 E 9 15 5 8 1005.2 1003.8 0.0
07/03:00pm 38.1 36.5 14.0 24 15.1 SE 15 20 8 11 1005.5 1004.1 0.0
07/02:30pm 38.2 38.0 14.7 24 14.8 ESE 9 15 5 8 1005.7 1004.3 0.0
07/02:00pm 37.2 35.8 14.5 26 14.3 SSE 15 24 8 13 1006.1 1004.7 0.0
07/01:30pm 37.1 35.8 13.8 25 14.5 SSE 13 24 7 13 1006.6 1005.2 0.0
07/01:00pm 36.4 36.7 16.0 29 13.1 ESE 9 17 5 9 1006.9 1005.5 0.0
07/12:30pm 36.1 35.8 17.3 33 12.2 SE 15 26 8 14 1007.3 1005.9 0.0
07/12:00pm 35.3 35.4 18.4 37 11.1 SE 15 24 8 13 1007.5 1006.1 0.0
07/11:30am 34.6 35.2 20.2 43 9.7 ESE 17 24 9 13 1007.8 1006.4 0.0
07/11:00am 33.8 34.2 20.6 46 8.9 SE 19 26 10 14 1008.1 1006.6 0.0
07/10:30am 32.9 33.4 20.8 49 8.2 SE 19 26 10 14 1008.1 1006.6 0.0
07/10:00am 32.3 32.8 21.2 52 7.5 ESE 20 30 11 16 1008.3 1006.8 0.0
07/09:30am 31.8 31.1 21.0 52 7.3 ESE 26 35 14 19 1008.2 1006.7 0.0
07/09:00am 31.2 31.1 21.4 56 6.6 SE 24 32 13 17 1008.0 1006.5 0.0
07/08:30am 30.3 29.8 20.8 56 6.4 SE 24 32 13 17 1007.8 1006.4 0.0
07/08:00am 29.3 29.6 18.7 52 6.9 S 15 22 8 12 1007.7 1006.3 0.0
07/07:30am 27.3 26.4 13.6 43 8.2 WSW 11 15 6 8 1007.4 1006.0 0.0
07/07:00am 25.4 24.2 12.9 45 7.3 WSW 11 13 6 7 1007.2 1005.8 0.0
07/06:30am 24.6 23.0 12.9 48 6.8 WSW 13 15 7 8 1006.7 1005.3 0.0
07/06:00am 24.3 22.8 13.2 50 6.5 WSW 13 15 7 8 1006.2 1004.8 0.0
07/05:30am 23.9 22.9 13.4 51 6.2 WSW 11 13 6 7 1005.8 1004.4 0.0
07/05:00am 24.3 23.6 13.2 50 6.5 WSW 9 11 5 6 1005.4 1004.0 0.0
07/04:30am 24.5 23.6 13.7 51 6.4 WSW 11 13 6 7 1005.3 1003.9 0.0
07/04:00am 24.3 24.2 15.0 56 5.6 WSW 9 11 5 6 1005.2 1003.8 0.0
07/03:30am 24.6 24.0 14.7 54 5.9 WSW 11 13 6 7 1005.1 1003.7 0.0
07/03:00am 25.7 25.2 13.9 48 7.0 WSW 9 9 5 5 1005.0 1003.6 0.0
07/02:30am 25.7 26.3 15.7 54 6.1 WSW 7 9 4 5 1005.1 1003.7 0.0
07/02:00am 26.5 26.0 13.9 45 7.6 WSW 9 13 5 7 1005.3 1003.9 0.0
07/01:30am 25.6 26.0 15.3 53 6.3 WSW 7 9 4 5 1005.6 1004.2 0.0
07/01:00am 26.1 25.9 14.6 49 7.0 WSW 9 11 5 6 1005.8 1004.4 0.0
07/12:30am 26.6 26.4 13.7 45 7.7 WSW 7 9 4 5 1006.1 1004.7 0.0
07/12:00am 27.4 27.3 13.4 42 8.3 WSW 6 7 3 4 1006.5 1005.1 0.0
 
Date/Time
EST
Temp
°C
App
Temp
°C
Dew
Point
Rel
Hum
%
Delta-T
°C
Wind Press
QNH
hPa
Press
MSL
hPa
Rain
since 9 am
mm
Dir
 
Spd
km/h
Gust
km/h
Spd
kts
Gust
kts
06/11:30pm 29.1 28.0 12.1 35 10.0 WSW 9 11 5 6 1006.4 1005.0 0.0
06/11:00pm 27.9 27.8 13.8 42 8.5 WSW 7 7 4 4 1006.4 1005.0 0.0
06/10:30pm 29.0 28.7 12.8 36 9.6 WSW 6 6 3 3 1006.2 1004.8 0.0
06/10:00pm 30.0 28.7 12.4 34 10.4 WSW 11 13 6 7 1006.0 1004.6 0.0
06/09:30pm 31.2 29.8 13.5 34 10.7 SW 13 30 7 16 1005.7 1004.3 0.0
06/09:00pm 30.9 31.2 14.9 37 9.9 NNW 7 7 4 4 1004.9 1003.5 0.0
06/08:30pm 31.1 30.8 13.4 34 10.7 NNW 7 9 4 5 1004.8 1003.4 0.0
06/08:00pm 32.6 31.9 13.3 31 11.7 NNW 9 9 5 5 1004.5 1003.1 0.0
06/07:30pm 33.2 31.0 12.2 28 12.6 NNW 15 17 8 9 1004.1 1002.7 0.0
06/07:00pm 34.6 32.3 11.7 25 13.7 NNW 15 19 8 10 1003.7 1002.2 0.0
06/06:30pm 35.4 32.9 11.1 23 14.4 NNW 15 20 8 11 1003.4 1001.9 0.0
06/06:00pm 36.0 34.0 11.6 23 14.7 NNW 13 17 7 9 1003.1 1001.6 0.0
06/05:30pm 35.9 33.0 10.9 22 14.8 NNW 17 20 9 11 1002.9 1001.4 0.0
06/05:00pm 36.0 34.2 10.9 22 14.9 NNW 11 17 6 9 1002.8 1001.3 0.0
06/04:30pm 36.4 34.0 12.6 24 14.5 NNW 17 24 9 13 1003.1 1001.6 0.0
06/04:00pm 36.1 34.9 11.7 23 14.7 NNW 9 17 5 9 1003.3 1001.8 0.0
06/03:30pm 35.3 33.2 11.0 23 14.4 SSE 13 20 7 11 1003.4 1001.9 0.0
06/03:00pm 35.4 33.7 9.7 21 15.0 SSE 9 22 5 12 1003.7 1002.2 0.0
06/02:30pm 35.1 34.1 10.9 23 14.3 SSE 7 13 4 7 1004.1 1002.7 0.0
06/02:00pm 35.8 33.8 11.4 23 14.6 SSE 13 22 7 12 1004.2 1002.8 0.0
06/01:30pm 35.6 34.3 11.3 23 14.5 SSE 9 17 5 9 1004.7 1003.3 0.0
06/01:00pm 34.9 32.7 12.0 25 13.8 SSE 15 20 8 11 1005.2 1003.8 0.0
06/12:30pm 34.6 34.0 11.7 25 13.7 S 6 9 3 5 1005.4 1004.0 0.0
06/12:00pm 34.3 31.6 10.2 23 14.1 S 15 19 8 10 1005.7 1004.3 0.0
06/11:30am 33.7 31.5 10.9 25 13.4 SSE 13 22 7 12 1005.9 1004.5 0.0
06/11:00am 33.1 31.5 11.6 27 12.8 SSE 11 22 6 12 1006.1 1004.7 0.0
06/10:30am 32.2 29.6 10.8 27 12.5 S 15 22 8 12 1006.1 1004.7 0.0
06/10:00am 31.8 28.1 9.3 25 12.8 S 19 26 10 14 1006.1 1004.7 0.0
06/09:30am 30.6 26.7 9.5 27 12.0 S 20 30 11 16 1006.1 1004.7 0.0
06/09:00am 29.9 25.9 8.9 27 11.8 S 20 28 11 15 1005.9 1004.5 0.0
06/08:30am 28.8 24.0 9.0 29 11.0 SSW 24 30 13 16 1005.7 1004.3 0.0
06/08:00am 27.2 23.5 9.5 33 9.9 SSW 19 22 10 12 1005.5 1004.1 0.0
06/07:30am 25.4 23.3 9.7 37 8.7 SSW 11 15 6 8 1005.5 1004.1 0.0
06/07:00am 23.2 21.9 11.3 47 6.7 SSW 9 11 5 6 1005.1 1003.7 0.0
06/06:30am 22.7 20.7 10.2 45 6.9 SSW 11 13 6 7 1004.5 1003.1 0.0
06/06:00am 23.4 20.8 9.4 41 7.7 SSW 13 15 7 8 1004.0 1002.6 0.0
06/05:30am 23.6 21.0 9.2 40 7.8 SSW 13 17 7 9 1003.7 1002.2 0.0
06/05:00am 24.4 21.7 8.8 37 8.5 SSW 13 15 7 8 1003.6 1002.1 0.0
06/04:30am 24.3 21.6 9.1 38 8.3 SSW 13 17 7 9 1003.3 1001.8 0.0
06/04:00am 24.4 21.7 8.8 37 8.5 SSW 13 15 7 8 1003.3 1001.8 0.0
06/03:30am 25.6 22.3 8.1 33 9.4 SSW 15 20 8 11 1003.4 1001.9 0.0
06/03:00am 26.3 22.7 8.3 32 9.8 SSW 17 22 9 12 1003.5 1002.0 0.0
06/02:30am 26.3 23.1 8.3 32 9.8 SSW 15 20 8 11 1003.6 1002.1 0.0
06/02:00am 27.2 22.8 7.6 29 10.6 SSW 20 28 11 15 1003.8 1002.4 0.0
06/01:30am 27.0 23.3 8.0 30 10.3 SSW 17 24 9 13 1004.3 1002.9 0.0
06/01:00am 27.4 23.3 7.8 29 10.7 SSW 19 24 10 13 1004.6 1003.2 0.0
06/12:30am 25.8 23.1 8.8 34 9.3 SSW 13 17 7 9 1004.9 1003.5 0.0
06/12:00am 26.5 23.8 8.9 33 9.7 SSW 13 15 7 8 1004.9 1003.5 0.0
 
Date/Time
EST
Temp
°C
App
Temp
°C
Dew
Point
Rel
Hum
%
Delta-T
°C
Wind Press
QNH
hPa
Press
MSL
hPa
Rain
since 9 am
mm
Dir
 
Spd
km/h
Gust
km/h
Spd
kts
Gust
kts
05/11:30pm 27.0 24.3 8.9 32 10.0 SSW 13 15 7 8 1005.3 1003.9 0.0
05/11:00pm 27.9 24.6 8.2 29 10.8 SSW 15 19 8 10 1005.4 1004.0 0.0
05/10:30pm 28.7 25.5 8.4 28 11.2 SSW 15 17 8 9 1005.4 1004.0 0.0
05/10:00pm 29.1 25.5 8.2 27 11.5 SSW 17 20 9 11 1005.4 1004.0 0.0
05/09:30pm 29.2 25.8 7.7 26 11.7 SSW 15 20 8 11 1005.4 1004.0 0.0
05/09:00pm 29.6 26.2 7.5 25 12.1 SW 15 20 8 11 1005.2 1003.8 0.0
05/08:30pm 30.2 26.4 7.4 24 12.5 SW 17 20 9 11 1005.0 1003.6 0.0
05/08:00pm 30.8 27.3 7.3 23 12.9 SW 15 20 8 11 1004.7 1003.3 0.0
05/07:30pm 31.8 27.5 6.8 21 13.6 SW 19 26 10 14 1004.2 1002.8 0.0
05/07:00pm 32.8 28.5 6.9 20 14.3 SW 19 24 10 13 1003.7 1002.2 0.0
05/06:30pm 33.7 29.3 7.6 20 14.6 SSW 20 28 11 15 1003.3 1001.8 0.0

Other Formats:

Comma delimited format used in spreadsheet applications
http://www.bom.gov.au/fwo/IDQ60801/IDQ60801.94335.axf

JavaScript Object Notation format (JSON) in row-major order
http://www.bom.gov.au/fwo/IDQ60801/IDQ60801.94335.json